Time;durP1;ratioP1;P1;durP2;ratioP2;P2;SDS_P1;SDS_P2;PMS_P1;PMS_P2;Temp;Humidity;BMP_temperature;BMP_pressure;BME280_temperature;BME280_humidity;BME280_pressure;Samples;Min_cycle;Max_cycle;Signal;HPM_P1;HPM_P2
2021/04/10 00:01:43;;;;;;;81.27;76.90;;;7.80;99.90;;;;;;4919448;29;20461;-83
2021/04/10 00:04:11;;;;;;;85.17;79.47;;;7.80;99.90;;;;;;4928904;29;20461;-83
2021/04/10 00:06:37;;;;;;;91.73;86.47;;;7.70;99.90;;;;;;4930661;29;20493;-83
2021/04/10 00:09:06;;;;;;;95.30;89.70;;;7.80;99.90;;;;;;4919077;29;20966;-83
2021/04/10 00:11:34;;;;;;;99.33;93.43;;;7.70;99.90;;;;;;4935160;29;20457;-83
2021/04/10 00:14:04;;;;;;;105.50;99.60;;;7.70;99.90;;;;;;4923078;29;20460;-83
2021/04/10 00:16:33;;;;;;;110.57;103.77;;;7.70;99.90;;;;;;4918908;29;20483;-83
2021/04/10 00:18:59;;;;;;;109.33;102.83;;;7.70;99.90;;;;;;4918869;29;20457;-82
2021/04/10 00:21:27;;;;;;;106.93;100.67;;;7.70;99.90;;;;;;4917794;29;20539;-82
2021/04/10 00:23:53;;;;;;;108.63;102.87;;;7.70;99.90;;;;;;4930330;29;20464;-82
2021/04/10 00:26:22;;;;;;;103.53;97.23;;;7.70;99.90;;;;;;4937697;29;20493;-83
2021/04/10 00:28:50;;;;;;;91.27;86.23;;;7.80;99.90;;;;;;4926317;29;20454;-83
2021/04/10 00:31:18;;;;;;;89.87;84.83;;;7.80;99.90;;;;;;4931348;29;20538;-82
2021/04/10 00:33:45;;;;;;;92.03;85.83;;;7.80;99.90;;;;;;4939115;29;20999;-83
2021/04/10 00:36:13;;;;;;;102.23;95.97;;;7.70;99.90;;;;;;4935507;29;20551;-82
2021/04/10 00:38:42;;;;;;;106.57;100.27;;;7.70;99.90;;;;;;4927751;29;20506;-83
2021/04/10 00:41:11;;;;;;;107.83;101.27;;;7.70;99.90;;;;;;4917918;29;20473;-82
2021/04/10 00:43:40;;;;;;;106.57;99.93;;;7.60;99.90;;;;;;4928351;29;20565;-83
2021/04/10 00:46:20;;;;;;;105.63;99.63;;;7.70;99.90;;;;;;4936468;29;20491;-83
2021/04/10 00:48:48;;;;;;;109.83;103.17;;;7.60;99.90;;;;;;4927950;29;20463;-83
2021/04/10 00:51:21;;;;;;;111.20;104.13;;;7.50;99.90;;;;;;4916265;29;20456;-83
2021/04/10 00:53:49;;;;;;;109.83;102.97;;;7.50;99.90;;;;;;4925266;29;20457;-83
2021/04/10 00:56:21;;;;;;;114.77;107.20;;;7.60;99.90;;;;;;4936268;29;20481;-83
2021/04/10 00:58:49;;;;;;;114.07;107.77;;;7.60;99.90;;;;;;4928333;29;20489;-83
2021/04/10 01:01:16;;;;;;;120.57;113.17;;;7.60;99.90;;;;;;4917339;29;20460;-82
2021/04/10 01:03:44;;;;;;;117.10;110.37;;;7.60;99.90;;;;;;4923524;29;20452;-83
2021/04/10 01:06:18;;;;;;;119.63;111.93;;;7.50;99.90;;;;;;4935032;29;20841;-83
2021/04/10 01:08:44;;;;;;;122.57;114.97;;;7.50;99.90;;;;;;4923459;29;20548;-82
2021/04/10 01:11:30;;;;;;;122.73;114.80;;;7.60;99.90;;;;;;4917384;29;20465;-82
2021/04/10 01:14:10;;;;;;;118.63;110.60;;;7.60;99.90;;;;;;4930355;29;20897;-83
2021/04/10 01:16:42;;;;;;;121.73;113.97;;;7.50;99.90;;;;;;4936232;29;20462;-83
2021/04/10 01:19:22;;;;;;;126.00;117.17;;;7.60;99.90;;;;;;4934236;29;20459;-83
2021/04/10 01:21:53;;;;;;;122.77;114.27;;;7.50;99.90;;;;;;4933441;29;20509;-83
2021/04/10 01:24:42;;;;;;;120.67;113.17;;;7.60;99.90;;;;;;4935880;29;20825;-83
2021/04/10 01:27:39;;;;;;;126.30;118.33;;;7.50;99.90;;;;;;4889879;29;20546;-83
2021/04/10 01:30:21;;;;;;;127.47;119.47;;;7.50;99.90;;;;;;4916552;29;20458;-83
2021/04/10 01:38:48;;;;;;;;;;;;;;;;;;;;;
2021/04/10 01:41:24;;;;;;;122.23;114.83;;;7.40;99.90;;;;;;5151713;27;20477;-82
2021/04/10 01:44:08;;;;;;;130.70;121.50;;;7.50;99.90;;;;;;5151872;27;20451;-83
2021/04/10 01:46:40;;;;;;;124.23;116.80;;;7.50;99.90;;;;;;5151658;27;20444;-83
2021/04/10 01:49:09;;;;;;;131.27;123.73;;;7.40;99.90;;;;;;5151877;27;20491;-83
2021/04/10 01:51:49;;;;;;;131.60;123.23;;;7.30;99.90;;;;;;5150202;27;20450;-82
2021/04/10 01:54:43;;;;;;;;;;;;;;;;;;;;;
2021/04/10 01:57:12;;;;;;;123.87;116.13;;;7.30;99.90;;;;;;5131041;27;20794;-82
2021/04/10 01:59:57;;;;;;;133.43;125.33;;;7.20;99.90;;;;;;5130992;27;20505;-83
2021/04/10 02:02:30;;;;;;;126.90;118.90;;;7.20;99.90;;;;;;5130906;27;20849;-82
2021/04/10 02:04:57;;;;;;;126.13;118.13;;;7.10;99.90;;;;;;5132360;27;20458;-82
2021/04/10 02:07:29;;;;;;;133.77;125.30;;;7.10;99.90;;;;;;5150267;27;20832;-83
2021/04/10 02:10:05;;;;;;;;;;;;;;;;;;;;;
2021/04/10 02:12:33;;;;;;;129.37;120.57;;;7.10;99.90;;;;;;5128762;27;20451;-82
2021/04/10 02:15:07;;;;;;;127.73;119.43;;;7.10;99.90;;;;;;5130701;27;20496;-83
2021/04/10 02:17:34;;;;;;;139.30;131.27;;;6.80;99.90;;;;;;5094257;28;20864;-83
2021/04/10 02:20:09;;;;;;;135.30;127.07;;;6.80;99.90;;;;;;5130480;27;20454;-82
2021/04/10 02:22:42;;;;;;;141.27;132.87;;;6.80;99.90;;;;;;5149973;27;20927;-82
2021/04/10 02:25:11;;;;;;;141.73;131.80;;;6.80;99.90;;;;;;5144567;27;20449;-83
2021/04/10 02:27:41;;;;;;;150.87;140.57;;;6.80;99.90;;;;;;5130257;27;20463;-82
2021/04/10 02:30:09;;;;;;;152.63;143.53;;;6.90;99.90;;;;;;5135057;27;20441;-82
2021/04/10 02:32:51;;;;;;;153.73;143.83;;;6.80;99.90;;;;;;5150954;27;20940;-83
2021/04/10 02:35:25;;;;;;;148.70;140.07;;;6.90;99.90;;;;;;5144065;27;20478;-83
2021/04/10 02:37:54;;;;;;;147.83;138.23;;;6.80;99.90;;;;;;5128998;27;20540;-82
2021/04/10 02:40:25;;;;;;;137.23;129.27;;;6.50;99.90;;;;;;5130224;27;20533;-82
2021/04/10 02:43:06;;;;;;;140.80;132.43;;;6.40;99.90;;;;;;5129959;27;21042;-82
2021/04/10 02:45:44;;;;;;;138.50;130.53;;;6.50;99.90;;;;;;5123755;27;20532;-83
2021/04/10 02:48:24;;;;;;;137.97;129.47;;;6.40;99.90;;;;;;5116201;28;20457;-83
2021/04/10 02:51:01;;;;;;;133.43;125.23;;;6.30;99.90;;;;;;5123837;27;20888;-82
2021/04/10 02:53:38;;;;;;;135.40;126.37;;;6.20;99.90;;;;;;5131039;27;20484;-83
2021/04/10 02:56:08;;;;;;;137.23;127.40;;;6.20;99.90;;;;;;5116296;28;20473;-83
2021/04/10 02:58:46;;;;;;;130.80;123.17;;;6.20;99.90;;;;;;5121763;27;20463;-82
2021/04/10 03:01:14;;;;;;;129.40;121.80;;;6.10;99.90;;;;;;5136568;27;20444;-82
2021/04/10 03:04:12;;;;;;;132.50;124.40;;;6.00;99.90;;;;;;5130223;27;20818;-83
2021/04/10 03:06:41;;;;;;;125.73;118.37;;;6.00;99.90;;;;;;5112351;27;20911;-82
2021/04/10 03:09:11;;;;;;;128.73;119.90;;;6.00;99.90;;;;;;5136404;27;20443;-83
2021/04/10 03:11:40;;;;;;;130.97;122.87;;;5.90;99.90;;;;;;5136336;27;20452;-82
2021/04/10 03:14:08;;;;;;;139.10;130.63;;;5.80;99.90;;;;;;5115633;28;20484;-83
2021/04/10 03:16:38;;;;;;;134.77;126.60;;;5.80;99.90;;;;;;5115732;28;20453;-83
2021/04/10 03:19:10;;;;;;;137.93;128.87;;;5.80;99.90;;;;;;5115352;28;20453;-82
2021/04/10 03:21:53;;;;;;;132.90;123.43;;;5.80;99.90;;;;;;5114380;28;20464;-82
2021/04/10 03:24:29;;;;;;;130.70;122.10;;;5.80;99.90;;;;;;5127406;27;20428;-83
2021/04/10 03:27:00;;;;;;;132.07;122.97;;;5.90;99.90;;;;;;5135188;27;20454;-82
2021/04/10 03:29:38;;;;;;;132.10;124.20;;;6.10;99.90;;;;;;5129031;27;20501;-83
2021/04/10 03:32:19;;;;;;;133.80;123.90;;;6.00;99.90;;;;;;5082697;28;20442;-83
2021/04/10 03:34:55;;;;;;;138.97;129.07;;;6.00;99.90;;;;;;5113871;27;20583;-82
2021/04/10 03:37:21;;;;;;;133.27;125.40;;;6.00;99.90;;;;;;5114174;28;20450;-82
2021/04/10 03:39:53;;;;;;;136.00;126.97;;;6.00;99.90;;;;;;5115110;28;20448;-82
2021/04/10 03:42:30;;;;;;;131.00;123.70;;;6.10;99.90;;;;;;5115127;28;20486;-83
2021/04/10 03:45:00;;;;;;;133.83;125.57;;;6.00;99.90;;;;;;5115072;28;21045;-83
2021/04/10 03:47:31;;;;;;;139.50;131.40;;;5.90;99.90;;;;;;5114901;28;20479;-82
2021/04/10 03:50:06;;;;;;;140.43;130.90;;;5.90;99.90;;;;;;5114836;28;20489;-82
2021/04/10 03:52:37;;;;;;;138.70;129.97;;;5.90;99.90;;;;;;5118494;27;20819;-82
2021/04/10 03:55:07;;;;;;;138.87;130.47;;;5.90;99.90;;;;;;5135384;27;20891;-82
2021/04/10 03:57:41;;;;;;;137.93;130.03;;;5.80;99.90;;;;;;5134227;27;20460;-82
2021/04/10 04:00:09;;;;;;;135.20;127.27;;;5.70;99.90;;;;;;5135154;27;20469;-82
2021/04/10 04:02:39;;;;;;;139.37;130.53;;;5.70;99.90;;;;;;5135596;27;20444;-82
2021/04/10 04:05:10;;;;;;;171.83;159.17;;;5.70;99.90;;;;;;5129480;27;20445;-82
2021/04/10 04:07:40;;;;;;;142.07;133.53;;;5.60;99.90;;;;;;5114825;27;20821;-82
2021/04/10 04:10:12;;;;;;;140.90;132.27;;;5.50;99.90;;;;;;5116462;27;20527;-82
2021/04/10 04:12:42;;;;;;;148.77;139.77;;;5.40;99.90;;;;;;5133733;27;20459;-83
2021/04/10 04:15:13;;;;;;;145.97;137.37;;;5.50;99.90;;;;;;5119347;27;20487;-85
2021/04/10 04:17:39;;;;;;;145.07;136.93;;;5.40;99.90;;;;;;5123961;27;20455;-80
2021/04/10 04:20:09;;;;;;;152.33;143.80;;;5.40;99.90;;;;;;5134110;27;20447;-82
2021/04/10 04:22:36;;;;;;;147.00;138.70;;;5.50;99.90;;;;;;5119051;27;20449;-82
2021/04/10 04:25:08;;;;;;;150.80;141.40;;;5.40;99.90;;;;;;5114484;27;20457;-82
2021/04/10 04:27:36;;;;;;;156.30;146.27;;;5.60;99.90;;;;;;5122914;27;20961;-82
2021/04/10 04:30:03;;;;;;;153.93;142.57;;;5.80;99.90;;;;;;5134577;27;20805;-82
2021/04/10 04:32:30;;;;;;;143.97;135.67;;;5.70;99.90;;;;;;5117539;28;20834;-82
2021/04/10 04:35:01;;;;;;;147.67;138.27;;;5.70;99.90;;;;;;5114466;27;20510;-82
2021/04/10 04:37:27;;;;;;;152.50;137.53;;;5.70;99.90;;;;;;5112818;28;20946;-82
2021/04/10 04:39:55;;;;;;;145.63;135.60;;;5.80;99.90;;;;;;5131100;27;20465;-82
2021/04/10 04:42:22;;;;;;;140.27;130.87;;;5.80;99.90;;;;;;5132805;27;20471;-82
2021/04/10 04:44:50;;;;;;;156.87;140.60;;;5.80;99.90;;;;;;5134172;27;20452;-81
2021/04/10 04:47:16;;;;;;;146.57;134.87;;;5.80;99.90;;;;;;5113883;28;20462;-82
2021/04/10 04:49:43;;;;;;;143.07;129.63;;;5.80;99.90;;;;;;5113840;28;20800;-82
2021/04/10 04:52:15;;;;;;;139.73;127.03;;;5.80;99.90;;;;;;5112357;28;20959;-82
2021/04/10 04:54:42;;;;;;;136.97;126.17;;;5.90;99.90;;;;;;5113503;28;21050;-82
2021/04/10 04:57:08;;;;;;;136.40;127.27;;;5.90;99.90;;;;;;5112977;28;20928;-82
2021/04/10 04:59:36;;;;;;;140.53;132.23;;;6.00;99.90;;;;;;5113638;28;20454;-84
2021/04/10 05:02:07;;;;;;;141.13;132.23;;;6.00;99.90;;;;;;5113030;28;20475;-82
2021/04/10 05:04:34;;;;;;;143.67;133.57;;;6.00;99.90;;;;;;5122554;27;20453;-82
2021/04/10 05:07:00;;;;;;;143.27;134.37;;;6.00;99.90;;;;;;5127487;27;20551;-82
2021/04/10 05:09:26;;;;;;;142.87;134.57;;;6.00;99.90;;;;;;5132993;27;20452;-82
2021/04/10 05:11:53;;;;;;;144.43;135.50;;;6.10;99.90;;;;;;5123128;27;20860;-82
2021/04/10 05:14:19;;;;;;;147.23;137.37;;;6.10;99.90;;;;;;5122824;27;20485;-82
2021/04/10 05:16:46;;;;;;;146.03;136.57;;;6.10;99.90;;;;;;5126234;27;20447;-82
2021/04/10 05:19:13;;;;;;;131.77;123.87;;;6.20;99.90;;;;;;5128121;27;21046;-82
2021/04/10 05:21:41;;;;;;;106.93;100.57;;;6.20;99.90;;;;;;5122330;27;20459;-82
2021/04/10 05:24:10;;;;;;;107.83;101.27;;;6.00;99.90;;;;;;5111666;28;20506;-82
2021/04/10 05:26:37;;;;;;;122.43;114.73;;;6.00;99.90;;;;;;5125585;27;20786;-82
2021/04/10 05:29:03;;;;;;;133.03;124.70;;;6.00;99.90;;;;;;5114051;27;20443;-82
2021/04/10 05:31:32;;;;;;;134.00;124.63;;;6.10;99.90;;;;;;5117218;28;20498;-82
2021/04/10 05:33:58;;;;;;;133.30;125.00;;;6.10;99.90;;;;;;5111652;28;20491;-82
2021/04/10 05:36:27;;;;;;;117.47;110.43;;;6.10;99.90;;;;;;5113267;28;21237;-81
2021/04/10 05:38:53;;;;;;;115.50;108.60;;;6.10;99.90;;;;;;5125440;27;20456;-82
2021/04/10 05:41:20;;;;;;;129.73;121.13;;;6.20;99.90;;;;;;5127570;27;20508;-82
2021/04/10 05:43:46;;;;;;;140.13;130.90;;;6.20;99.90;;;;;;5124473;27;20461;-82
2021/04/10 05:46:12;;;;;;;144.37;133.67;;;6.40;99.90;;;;;;5112945;27;20498;-81
2021/04/10 05:48:41;;;;;;;141.43;132.37;;;6.40;99.90;;;;;;5118706;27;20450;-80
2021/04/10 05:51:07;;;;;;;134.67;126.30;;;6.50;99.90;;;;;;5132403;27;20460;-82
2021/04/10 05:53:34;;;;;;;140.77;131.60;;;6.60;99.90;;;;;;5131117;27;20877;-81
2021/04/10 05:56:01;;;;;;;134.33;125.40;;;6.70;99.90;;;;;;5133580;27;20535;-80
2021/04/10 05:58:27;;;;;;;136.80;128.30;;;6.70;99.90;;;;;;5116110;27;20488;-83
2021/04/10 06:00:53;;;;;;;138.37;128.40;;;6.70;99.90;;;;;;5113038;28;20498;-81
2021/04/10 06:03:20;;;;;;;122.50;114.57;;;6.70;99.90;;;;;;5113084;28;20442;-81
2021/04/10 06:05:46;;;;;;;131.50;123.47;;;6.70;99.90;;;;;;5112550;28;20529;-82
2021/04/10 06:08:13;;;;;;;131.87;123.27;;;6.70;99.90;;;;;;5126913;27;20800;-82
2021/04/10 06:10:41;;;;;;;137.80;128.70;;;6.80;99.90;;;;;;5131655;27;20452;-81
2021/04/10 06:13:08;;;;;;;138.43;129.30;;;6.80;99.90;;;;;;5131941;27;20444;-82
2021/04/10 06:15:34;;;;;;;148.67;139.77;;;7.00;99.90;;;;;;5132738;27;21126;-82
2021/04/10 06:18:01;;;;;;;155.53;144.93;;;7.10;99.90;;;;;;5133741;27;20852;-82
2021/04/10 06:20:28;;;;;;;151.07;140.77;;;7.10;99.90;;;;;;5128516;27;20940;-81
2021/04/10 06:22:54;;;;;;;156.47;145.97;;;7.20;99.90;;;;;;5115867;28;20452;-81
2021/04/10 06:25:20;;;;;;;164.93;153.97;;;7.30;99.90;;;;;;5120466;27;20445;-81
2021/04/10 06:27:47;;;;;;;165.43;155.63;;;7.30;99.90;;;;;;5137218;27;20531;-80
2021/04/10 06:30:15;;;;;;;171.10;160.93;;;7.30;99.90;;;;;;5135446;27;20545;-81
2021/04/10 06:32:41;;;;;;;164.20;153.27;;;7.40;99.90;;;;;;5137159;27;20546;-82
2021/04/10 06:35:08;;;;;;;172.40;160.40;;;7.50;99.90;;;;;;5120464;27;20525;-82
2021/04/10 06:37:35;;;;;;;176.40;165.53;;;7.60;99.90;;;;;;5134248;27;20461;-82
2021/04/10 06:40:02;;;;;;;170.93;159.53;;;7.60;99.90;;;;;;5122066;27;20454;-82
2021/04/10 06:42:30;;;;;;;168.20;158.23;;;7.80;99.90;;;;;;5116314;28;20449;-82
2021/04/10 06:44:58;;;;;;;173.63;162.43;;;8.00;99.90;;;;;;5127689;27;20450;-81
2021/04/10 06:47:27;;;;;;;172.37;161.10;;;8.10;99.90;;;;;;5136910;27;20555;-82
2021/04/10 06:50:00;;;;;;;167.83;157.67;;;8.20;99.90;;;;;;5135954;27;20458;-81
2021/04/10 06:52:27;;;;;;;177.10;165.43;;;8.20;99.90;;;;;;5124161;27;20540;-80
2021/04/10 06:55:00;;;;;;;178.70;167.50;;;8.30;99.90;;;;;;5116663;27;20537;-81
2021/04/10 06:57:28;;;;;;;178.20;166.33;;;8.40;99.90;;;;;;5126850;27;20534;-81
2021/04/10 07:00:01;;;;;;;184.13;173.13;;;8.60;99.90;;;;;;5136554;27;20815;-81
2021/04/10 07:02:29;;;;;;;179.27;168.47;;;8.70;99.90;;;;;;5136381;27;20454;-81
2021/04/10 07:04:56;;;;;;;187.57;176.40;;;8.80;99.90;;;;;;5136444;27;20542;-81
2021/04/10 07:07:24;;;;;;;185.00;174.17;;;8.80;99.90;;;;;;5126075;27;20445;-81
2021/04/10 07:09:50;;;;;;;199.60;188.00;;;9.00;99.90;;;;;;5115896;28;20458;-80
2021/04/10 07:12:17;;;;;;;197.20;186.00;;;9.00;99.90;;;;;;5123670;27;20487;-81
2021/04/10 07:14:46;;;;;;;199.20;188.27;;;9.10;99.90;;;;;;5133774;27;21013;-81
2021/04/10 07:17:13;;;;;;;204.43;193.10;;;9.20;99.90;;;;;;5134266;27;20453;-80
2021/04/10 07:19:42;;;;;;;209.47;198.03;;;9.30;99.90;;;;;;5134902;27;21295;-82
2021/04/10 07:22:10;;;;;;;216.27;203.37;;;9.50;99.90;;;;;;5136622;27;20551;-82
2021/04/10 07:24:42;;;;;;;211.97;199.50;;;9.50;99.90;;;;;;5116922;27;20446;-81
2021/04/10 07:27:13;;;;;;;210.23;198.20;;;9.60;99.90;;;;;;5125643;27;20456;-83
2021/04/10 07:29:43;;;;;;;214.30;202.90;;;9.70;99.90;;;;;;5135196;27;20451;-83
2021/04/10 07:32:31;;;;;;;210.97;199.07;;;9.80;99.90;;;;;;5124545;27;20459;-82
2021/04/10 07:35:41;;;;;;;178.10;167.13;;;9.80;99.90;;;;;;5115137;28;20492;-83
2021/04/10 07:38:08;;;;;;;160.57;149.47;;;9.80;99.90;;;;;;5114390;27;20445;-84
2021/04/10 07:40:47;;;;;;;157.07;147.53;;;9.90;99.90;;;;;;5115190;27;20504;-83
2021/04/10 07:43:26;;;;;;;152.77;143.70;;;9.90;99.90;;;;;;5115359;28;20445;-83
2021/04/10 07:46:34;;;;;;;144.50;135.23;;;10.10;99.90;;;;;;5133038;27;20508;-83
2021/04/10 07:49:27;;;;;;;;;;;;;;;;;;;;;
2021/04/10 07:52:03;;;;;;;118.60;111.70;;;10.30;99.90;;;;;;5114075;28;20810;-84
2021/04/10 07:54:34;;;;;;;108.47;101.37;;;10.40;99.90;;;;;;5120187;27;20839;-84
2021/04/10 07:57:29;;;;;;;99.43;93.37;;;10.60;99.90;;;;;;5135445;27;20505;-83
2021/04/10 08:00:20;;;;;;;;;;;;;;;;;;;;;
2021/04/10 08:12:46;;;;;;;22.20;14.20;;;11.70;98.80;;;;;;5128986;27;20890;-84
2021/04/10 08:15:54;;;;;;;24.33;11.80;;;11.90;99.90;;;;;;5114232;28;20461;-85
2021/04/10 08:22:13;;;;;;;27.63;11.73;;;11.60;83.50;;;;;;5048268;28;20486;-83
2021/04/10 08:24:50;;;;;;;25.13;10.13;;;11.60;86.10;;;;;;5067789;28;20457;-83
2021/04/10 08:27:41;;;;;;;22.63;12.50;;;11.60;91.60;;;;;;5071679;28;20457;-84
2021/04/10 08:30:29;;;;;;;22.20;12.17;;;11.50;92.20;;;;;;5051230;28;20548;-83
2021/04/10 08:32:58;;;;;;;22.73;12.03;;;11.30;88.90;;;;;;5056356;28;21039;-83
2021/04/10 08:35:26;;;;;;;24.97;13.37;;;11.50;96.40;;;;;;5071046;28;20493;-83
2021/04/10 08:37:57;;;;;;;23.97;12.40;;;11.40;91.50;;;;;;5065166;28;20814;-85
2021/04/10 08:46:41;;;;;;;22.73;13.43;;;11.20;90.50;;;;;;5093683;27;20425;-84
2021/04/10 08:52:13;;;;;;;38.07;18.30;;;11.50;90.80;;;;;;5122940;27;20455;-84
2021/04/10 08:54:42;;;;;;;30.67;16.23;;;11.50;86.80;;;;;;5115490;27;21037;-82
2021/04/10 08:57:14;;;;;;;30.50;17.30;;;11.70;93.10;;;;;;5113893;28;20459;-83
2021/04/10 08:59:43;;;;;;;25.07;15.50;;;11.60;90.00;;;;;;5127316;27;21055;-82
2021/04/10 09:02:18;;;;;;;25.63;14.97;;;11.70;89.00;;;;;;5119024;27;20982;-82
2021/04/10 09:05:00;;;;;;;32.63;16.63;;;11.60;79.20;;;;;;5112664;28;20451;-84
2021/04/10 09:08:05;;;;;;;26.77;14.63;;;11.70;82.00;;;;;;5127943;27;20448;-88
2021/04/10 09:10:56;;;;;;;29.13;14.23;;;11.70;78.50;;;;;;5129724;27;20790;-82
2021/04/10 09:13:42;;;;;;;23.63;11.93;;;11.90;83.30;;;;;;5112812;28;20547;-83
2021/04/10 09:16:37;;;;;;;29.43;16.20;;;11.90;76.30;;;;;;5112827;27;20795;-84
2021/04/10 09:19:16;;;;;;;30.63;14.47;;;12.10;77.20;;;;;;5132757;27;20450;-86
2021/04/10 09:21:45;;;;;;;33.13;14.03;;;12.00;78.10;;;;;;5131505;27;20443;-86
2021/04/10 09:24:38;;;;;;;32.50;16.37;;;11.90;75.00;;;;;;5132924;27;20457;-87
2021/04/10 09:27:08;;;;;;;37.20;13.43;;;11.70;81.40;;;;;;5122988;27;20498;-86
2021/04/10 09:29:50;;;;;;;32.80;15.30;;;11.50;78.30;;;;;;5119402;27;20501;-87
2021/04/10 09:32:31;;;;;;;29.80;15.27;;;11.60;82.80;;;;;;5133042;27;20801;-88
2021/04/10 09:34:59;;;;;;;30.47;16.90;;;11.50;75.10;;;;;;5122029;27;20486;-87
2021/04/10 09:38:02;;;;;;;37.80;19.60;;;11.70;84.90;;;;;;5111300;28;20448;-87
2021/04/10 09:40:50;;;;;;;36.73;17.20;;;11.90;81.40;;;;;;5126128;27;20451;-87
2021/04/10 09:43:21;;;;;;;40.00;15.03;;;12.10;84.50;;;;;;5132827;27;21366;-88
2021/04/10 09:46:26;;;;;;;33.30;16.90;;;12.00;75.40;;;;;;5116718;27;20509;-89
2021/04/10 09:48:52;;;;;;;36.20;15.73;;;12.00;77.00;;;;;;5113890;28;20525;-85
2021/04/10 09:51:19;;;;;;;27.83;17.40;;;12.20;80.70;;;;;;5114612;27;20521;-85
2021/04/10 09:53:47;;;;;;;39.13;17.57;;;12.00;73.50;;;;;;5120621;27;20505;-85
2021/04/10 09:56:15;;;;;;;29.33;15.43;;;12.30;82.50;;;;;;5124458;27;20536;-84
2021/04/10 09:58:56;;;;;;;33.20;14.67;;;12.30;65.60;;;;;;5131254;27;20469;-82
2021/04/10 10:01:28;;;;;;;33.23;16.23;;;12.20;66.50;;;;;;5124161;27;20520;-84
2021/04/10 10:03:56;;;;;;;34.93;19.37;;;12.20;70.10;;;;;;5122810;27;20460;-82
2021/04/10 10:06:25;;;;;;;42.50;20.30;;;12.30;69.80;;;;;;5123429;27;20443;-84
2021/04/10 10:08:53;;;;;;;39.33;17.90;;;11.90;62.70;;;;;;5134591;27;20481;-82
2021/04/10 10:11:21;;;;;;;40.67;19.10;;;12.10;76.70;;;;;;5128040;27;20456;-84
2021/04/10 10:13:47;;;;;;;40.00;19.93;;;12.20;69.70;;;;;;5116916;27;20460;-83
2021/04/10 10:16:23;;;;;;;35.10;17.00;;;12.10;67.60;;;;;;5119463;27;20500;-82
2021/04/10 10:18:50;;;;;;;37.07;15.80;;;11.80;64.80;;;;;;5132135;27;20444;-83
2021/04/10 10:21:19;;;;;;;37.40;19.03;;;11.80;70.70;;;;;;5129783;27;20478;-83
2021/04/10 10:23:48;;;;;;;33.03;19.60;;;11.80;76.10;;;;;;5119388;27;21011;-83
2021/04/10 10:26:17;;;;;;;45.57;20.00;;;11.90;78.70;;;;;;5127667;27;20960;-82
2021/04/10 10:28:45;;;;;;;37.17;18.87;;;11.90;73.10;;;;;;5131619;27;20485;-83
2021/04/10 10:31:14;;;;;;;32.87;18.17;;;11.90;78.70;;;;;;5125618;27;20555;-82
2021/04/10 10:33:42;;;;;;;31.30;17.40;;;11.90;74.90;;;;;;5128100;27;20532;-82
2021/04/10 10:36:10;;;;;;;34.50;18.57;;;12.10;81.00;;;;;;5130343;27;20728;-82
2021/04/10 10:38:39;;;;;;;34.13;19.63;;;12.10;78.10;;;;;;5124917;27;20447;-82
2021/04/10 10:41:06;;;;;;;35.57;16.80;;;12.10;75.70;;;;;;5128749;27;20532;-81
2021/04/10 10:43:34;;;;;;;33.53;16.50;;;12.10;73.80;;;;;;5120950;27;20451;-82
2021/04/10 10:46:02;;;;;;;40.70;17.70;;;12.10;78.90;;;;;;5126246;27;21358;-82
2021/04/10 10:48:31;;;;;;;28.60;14.40;;;12.20;75.30;;;;;;5124704;27;20480;-82
2021/04/10 10:51:07;;;;;;;25.27;14.17;;;12.20;75.00;;;;;;5129859;27;20810;-83
2021/04/10 10:53:36;;;;;;;27.33;15.63;;;12.30;76.60;;;;;;5117007;27;20468;-83
2021/04/10 10:56:07;;;;;;;29.40;15.13;;;12.30;73.10;;;;;;5124409;27;20470;-83
2021/04/10 10:58:36;;;;;;;24.93;13.77;;;12.00;74.10;;;;;;5124932;27;20950;-83
2021/04/10 11:01:15;;;;;;;23.90;12.53;;;11.90;73.30;;;;;;5119880;27;20451;-82
2021/04/10 11:03:48;;;;;;;25.20;12.93;;;11.70;71.30;;;;;;5114520;28;20971;-82
2021/04/10 11:06:24;;;;;;;26.40;15.90;;;11.60;78.40;;;;;;5113386;28;20451;-82
2021/04/10 11:08:52;;;;;;;25.27;17.47;;;11.60;83.90;;;;;;5114507;28;20452;-82
2021/04/10 11:11:21;;;;;;;28.63;16.33;;;11.70;80.70;;;;;;5114723;28;20495;-82
2021/04/10 11:13:48;;;;;;;33.40;19.03;;;11.50;78.30;;;;;;5114532;28;20530;-82
2021/04/10 11:16:17;;;;;;;30.40;22.40;;;11.60;84.60;;;;;;5114353;28;20554;-83
2021/04/10 11:18:44;;;;;;;25.30;20.80;;;11.70;96.70;;;;;;5114663;28;20486;-82
2021/04/10 11:21:20;;;;;;;26.03;16.10;;;11.70;97.90;;;;;;5114005;27;20488;-82
2021/04/10 11:23:58;;;;;;;24.80;18.70;;;11.60;86.20;;;;;;5114433;28;20452;-82
2021/04/10 11:26:51;;;;;;;32.37;20.50;;;11.70;92.50;;;;;;5132964;27;20528;-82
2021/04/10 11:29:28;;;;;;;33.93;25.60;;;11.60;94.00;;;;;;5094570;28;20462;-82
2021/04/10 11:32:19;;;;;;;28.17;22.90;;;11.50;95.40;;;;;;5115481;28;20971;-82
2021/04/10 11:35:00;;;;;;;29.30;23.10;;;11.30;97.70;;;;;;5118586;27;20475;-82
2021/04/10 11:37:49;;;;;;;27.17;22.33;;;11.20;99.90;;;;;;5134693;27;20994;-83
2021/04/10 11:40:30;;;;;;;30.73;27.43;;;10.90;99.90;;;;;;5116915;27;20451;-83
2021/04/10 11:42:58;;;;;;;36.43;33.27;;;10.70;99.90;;;;;;5115192;28;20475;-83
2021/04/10 11:45:33;;;;;;;50.60;45.90;;;10.60;99.90;;;;;;5128365;27;20487;-83
2021/04/10 11:48:12;;;;;;;50.47;46.60;;;10.80;99.90;;;;;;5135684;27;20444;-83
2021/04/10 11:50:43;;;;;;;52.23;48.43;;;10.70;99.90;;;;;;5120586;27;20545;-83
2021/04/10 11:53:16;;;;;;;56.77;52.70;;;10.80;99.90;;;;;;5117619;27;20471;-83
2021/04/10 11:55:44;;;;;;;51.90;47.93;;;10.90;99.90;;;;;;5135372;27;20497;-83
2021/04/10 11:58:10;;;;;;;42.67;39.37;;;11.00;99.90;;;;;;5134654;27;20825;-83
2021/04/10 12:00:36;;;;;;;28.67;25.90;;;10.90;99.90;;;;;;5129405;27;20541;-83
2021/04/10 12:03:11;;;;;;;31.77;28.73;;;10.90;99.90;;;;;;5127593;27;20491;-83
2021/04/10 12:05:41;;;;;;;35.13;31.90;;;11.00;99.90;;;;;;5114880;28;20480;-83
2021/04/10 12:08:13;;;;;;;40.28;36.97;;;11.10;99.90;;;;;;5123179;27;20453;-83
2021/04/10 12:10:47;;;;;;;40.00;36.63;;;11.30;99.90;;;;;;5117622;27;20561;-83
2021/04/10 12:13:16;;;;;;;31.37;28.57;;;11.40;99.90;;;;;;5114863;28;20461;-83
2021/04/10 12:15:42;;;;;;;34.17;30.57;;;11.30;99.90;;;;;;5114538;28;20532;-83
2021/04/10 12:18:13;;;;;;;23.77;21.33;;;11.40;99.90;;;;;;5113909;28;20515;-84
2021/04/10 12:20:42;;;;;;;32.50;29.20;;;11.10;99.90;;;;;;5114686;28;20442;-84
2021/04/10 12:23:08;;;;;;;31.63;28.63;;;11.30;99.90;;;;;;5113360;28;20495;-83
2021/04/10 12:25:38;;;;;;;36.43;33.23;;;11.20;99.90;;;;;;5114475;28;20460;-83
2021/04/10 12:28:05;;;;;;;33.87;30.57;;;11.20;99.90;;;;;;5114314;28;20947;-83
2021/04/10 12:30:32;;;;;;;35.83;32.73;;;11.10;99.90;;;;;;5121072;27;20811;-83
2021/04/10 12:32:59;;;;;;;23.60;21.10;;;11.10;99.90;;;;;;5132984;27;20520;-83
2021/04/10 12:35:27;;;;;;;32.33;29.10;;;10.80;99.50;;;;;;5133187;27;20854;-83
2021/04/10 12:37:54;;;;;;;38.17;34.63;;;10.90;99.90;;;;;;5131845;27;20474;-82
2021/04/10 12:40:21;;;;;;;41.37;38.23;;;10.80;99.90;;;;;;5133304;27;20456;-83
2021/04/10 12:42:48;;;;;;;40.47;37.07;;;10.80;99.90;;;;;;5133185;27;20826;-83
2021/04/10 12:45:17;;;;;;;43.03;39.10;;;10.50;99.90;;;;;;5132944;27;20457;-83
2021/04/10 12:47:47;;;;;;;51.80;47.80;;;10.50;99.90;;;;;;5133181;27;20486;-83
2021/04/10 12:50:16;;;;;;;56.67;52.87;;;10.70;99.90;;;;;;5133060;27;20960;-83
2021/04/10 12:52:42;;;;;;;61.33;57.23;;;10.70;99.90;;;;;;5132163;27;21064;-83
2021/04/10 12:55:10;;;;;;;58.77;54.87;;;10.70;99.90;;;;;;5132823;27;20536;-83
2021/04/10 12:57:36;;;;;;;54.60;50.53;;;10.60;99.90;;;;;;5133401;27;20466;-83
2021/04/10 13:00:05;;;;;;;60.30;56.43;;;10.60;99.90;;;;;;5132988;27;20948;-82
2021/04/10 13:02:34;;;;;;;55.47;51.80;;;10.60;99.90;;;;;;5133233;27;20534;-82
2021/04/10 13:05:01;;;;;;;49.90;46.17;;;10.60;99.90;;;;;;5133291;27;20457;-83
2021/04/10 13:07:27;;;;;;;48.30;44.93;;;10.40;99.90;;;;;;5131769;27;20456;-82
2021/04/10 13:09:54;;;;;;;44.50;41.37;;;10.40;99.90;;;;;;5132771;27;20482;-82
2021/04/10 13:12:20;;;;;;;46.67;42.90;;;10.30;99.90;;;;;;5132941;27;20498;-83
2021/04/10 13:14:47;;;;;;;53.83;50.47;;;10.30;99.90;;;;;;5132601;27;20480;-82
2021/04/10 13:17:14;;;;;;;57.03;53.37;;;10.40;99.90;;;;;;5132704;27;20458;-83
2021/04/10 13:19:41;;;;;;;60.43;56.87;;;10.50;99.90;;;;;;5134066;27;20547;-82
2021/04/10 13:22:08;;;;;;;62.87;59.00;;;10.50;99.90;;;;;;5132754;27;20488;-83